createdAt,value
2018-06-18T00:02:37.829Z,22.30
2018-06-18T00:05:16.121Z,22.30
2018-06-18T00:07:53.488Z,22.30
2018-06-18T00:10:31.293Z,22.20
2018-06-18T00:13:08.410Z,22.30
2018-06-18T00:15:46.211Z,22.20
2018-06-18T00:18:23.322Z,22.20
2018-06-18T00:21:00.844Z,22.20
2018-06-18T00:26:14.492Z,22.10
2018-06-18T00:28:51.378Z,22.20
2018-06-18T00:31:28.593Z,22.30
2018-06-18T00:34:08.433Z,22.30
2018-06-18T00:36:45.534Z,22.10
2018-06-18T00:39:22.901Z,22.10
2018-06-18T00:41:59.744Z,22.10
2018-06-18T00:44:37.444Z,22.20
2018-06-18T00:49:51.421Z,22.20
2018-06-18T00:52:28.854Z,22.10
2018-06-18T00:55:09.067Z,22.10
2018-06-18T00:57:47.430Z,22.10
2018-06-18T01:00:26.118Z,22.00
2018-06-18T01:03:02.821Z,22.10
2018-06-18T01:05:39.901Z,22.10
2018-06-18T01:10:53.843Z,22.00
2018-06-18T01:13:30.758Z,22.00
2018-06-18T01:16:07.945Z,22.00
2018-06-18T01:18:45.037Z,22.00
2018-06-18T01:21:22.436Z,21.90
2018-06-18T01:24:02.697Z,21.90
2018-06-18T01:26:40.120Z,22.00
2018-06-18T01:29:17.369Z,22.00
2018-06-18T01:31:55.753Z,22.00
2018-06-18T01:34:32.432Z,22.00
2018-06-18T01:37:09.450Z,22.00
2018-06-18T01:39:46.399Z,22.00
2018-06-18T01:42:23.761Z,22.00
2018-06-18T01:45:00.938Z,22.00
2018-06-18T01:47:37.907Z,21.90
2018-06-18T01:50:14.975Z,22.00
2018-06-18T01:52:52.077Z,22.10
2018-06-18T01:55:28.951Z,22.00
2018-06-18T01:58:05.957Z,22.10
2018-06-18T02:00:43.594Z,22.00
2018-06-18T02:03:20.790Z,22.00
2018-06-18T02:05:57.297Z,21.90
2018-06-18T02:08:34.311Z,21.90
2018-06-18T02:13:48.285Z,21.90
2018-06-18T02:16:24.968Z,22.10
2018-06-18T02:19:02.123Z,22.00
2018-06-18T02:21:39.987Z,21.90
2018-06-18T02:24:16.937Z,21.90
2018-06-18T02:26:59.233Z,21.90
2018-06-18T02:29:41.552Z,21.90
2018-06-18T02:32:23.552Z,22.00
2018-06-18T02:35:05.567Z,22.30
2018-06-18T02:37:47.821Z,22.20
2018-06-18T02:40:30.097Z,22.10
2018-06-18T02:43:06.638Z,22.00
2018-06-18T02:45:43.768Z,22.00
2018-06-18T02:48:20.549Z,22.10
2018-06-18T02:50:57.698Z,22.20
2018-06-18T02:53:34.403Z,22.10
2018-06-18T02:56:11.820Z,22.10
2018-06-18T03:01:25.383Z,22.10
2018-06-18T03:04:02.069Z,22.00
2018-06-18T03:06:38.942Z,22.00
2018-06-18T03:09:15.614Z,22.00
2018-06-18T03:14:29.749Z,22.00
2018-06-18T03:17:06.253Z,21.90
2018-06-18T03:22:52.353Z,21.90
2018-06-18T03:25:34.310Z,21.90
2018-06-18T03:28:16.120Z,21.70
2018-06-18T03:30:52.980Z,21.70
2018-06-18T03:33:30.264Z,21.80
2018-06-18T03:36:08.185Z,21.90
2018-06-18T03:38:45.063Z,21.90
2018-06-18T03:41:22.076Z,21.90
2018-06-18T03:44:04.851Z,21.90
2018-06-18T03:46:42.328Z,21.70
2018-06-18T03:49:19.337Z,21.80
2018-06-18T03:51:56.159Z,21.90
2018-06-18T03:54:33.609Z,21.90
2018-06-18T03:57:10.324Z,22.00
2018-06-18T03:59:47.048Z,21.90
2018-06-18T04:02:40.715Z,21.90
2018-06-18T04:05:23.109Z,21.80
2018-06-18T04:08:02.014Z,21.80
2018-06-18T04:10:43.952Z,21.70
2018-06-18T04:13:20.556Z,21.70
2018-06-18T04:15:57.565Z,21.70
2018-06-18T04:18:38.725Z,21.70
2018-06-18T04:21:15.412Z,21.60
2018-06-18T04:23:51.968Z,21.70
2018-06-18T04:26:28.895Z,21.80
2018-06-18T04:29:06.161Z,21.80
2018-06-18T04:31:43.036Z,21.90
2018-06-18T04:34:28.865Z,21.80
2018-06-18T04:37:06.329Z,21.70
2018-06-18T04:39:43.291Z,21.80
2018-06-18T04:42:25.144Z,21.80
2018-06-18T04:45:07.807Z,21.80
2018-06-18T04:47:49.703Z,21.70
2018-06-18T04:50:31.881Z,21.80
2018-06-18T04:53:09.625Z,21.80
2018-06-18T04:55:46.264Z,21.80
2018-06-18T04:58:23.539Z,21.90
2018-06-18T05:01:18.332Z,21.80
2018-06-18T05:06:32.499Z,21.90
2018-06-18T05:11:20.757Z,21.90
2018-06-18T05:13:58.381Z,21.90
2018-06-18T05:16:35.054Z,21.90
2018-06-18T05:19:12.163Z,21.90
2018-06-18T05:21:49.008Z,22.00
2018-06-18T05:24:26.056Z,22.00
2018-06-18T05:27:03.713Z,22.10
2018-06-18T05:29:40.924Z,22.10
2018-06-18T05:32:17.643Z,22.10
2018-06-18T05:34:55.166Z,22.10
2018-06-18T05:38:36.090Z,22.10
2018-06-18T05:41:13.535Z,22.10
2018-06-18T05:43:50.357Z,22.00
2018-06-18T05:46:27.334Z,22.00
2018-06-18T05:49:04.376Z,22.00
2018-06-18T05:51:41.049Z,22.00
2018-06-18T05:54:18.008Z,22.00
2018-06-18T05:59:53.069Z,22.30
2018-06-18T06:02:30.038Z,22.10
2018-06-18T06:05:06.839Z,22.10
2018-06-18T06:07:43.879Z,22.20
2018-06-18T06:10:20.765Z,22.10
2018-06-18T06:12:57.738Z,22.10
2018-06-18T06:15:34.832Z,22.20
2018-06-18T06:18:11.580Z,22.20
2018-06-18T06:20:54.751Z,22.30
2018-06-18T06:23:31.604Z,22.40
2018-06-18T06:26:08.565Z,22.40
2018-06-18T06:28:45.524Z,22.30
2018-06-18T06:31:22.904Z,22.40
2018-06-18T06:33:59.854Z,22.40
2018-06-18T06:36:36.840Z,22.50
2018-06-18T06:39:13.785Z,22.60
2018-06-18T06:41:55.492Z,22.50
2018-06-18T06:44:33.015Z,22.70
2018-06-18T06:47:10.106Z,22.80
2018-06-18T06:49:47.412Z,22.80
2018-06-18T06:55:01.104Z,22.90
2018-06-18T06:57:38.111Z,23.00
2018-06-18T07:00:15.357Z,23.10
2018-06-18T07:02:52.676Z,23.20
2018-06-18T07:05:30.163Z,22.10
2018-06-18T07:08:06.902Z,23.50
2018-06-18T07:10:44.381Z,23.50
2018-06-18T07:13:22.002Z,23.60
2018-06-18T07:15:58.793Z,23.60
2018-06-18T07:18:35.501Z,23.80
2018-06-18T07:21:12.450Z,23.80
2018-06-18T07:23:49.772Z,23.90
2018-06-18T07:26:26.861Z,24.30
2018-06-18T07:29:03.673Z,25.30
2018-06-18T07:31:40.545Z,26.10
2018-06-18T07:34:17.269Z,26.40
2018-06-18T07:36:54.619Z,26.70
2018-06-18T07:42:07.186Z,26.80
2018-06-18T07:44:44.265Z,27.30
2018-06-18T07:47:21.148Z,27.60
2018-06-18T07:49:57.940Z,28.30
2018-06-18T07:52:34.797Z,30.20
2018-06-18T07:55:11.689Z,30.80
2018-06-18T07:57:49.040Z,30.80
2018-06-18T08:00:26.046Z,30.70
2018-06-18T08:03:02.933Z,30.20
2018-06-18T08:05:39.831Z,29.60
2018-06-18T08:08:17.315Z,30.10
2018-06-18T08:10:53.816Z,29.90
2018-06-18T08:13:31.223Z,29.70
2018-06-18T08:16:08.029Z,29.60
2018-06-18T08:18:44.884Z,29.80
2018-06-18T08:21:21.926Z,29.80
2018-06-18T08:23:58.767Z,29.70
2018-06-18T08:26:35.826Z,29.70
2018-06-18T08:29:12.768Z,29.90
2018-06-18T08:31:50.016Z,30.60
2018-06-18T08:34:27.753Z,31.10
2018-06-18T08:37:05.754Z,31.30
2018-06-18T08:39:43.325Z,31.30
2018-06-18T08:42:27.814Z,31.60
2018-06-18T08:45:04.549Z,32.60
2018-06-18T08:47:42.504Z,32.80
2018-06-18T08:50:24.242Z,31.90
2018-06-18T08:53:06.864Z,31.70
2018-06-18T08:55:49.112Z,32.30
2018-06-18T08:58:31.162Z,32.20
2018-06-18T09:01:10.980Z,31.50
2018-06-18T09:03:53.438Z,31.30
2018-06-18T09:06:29.890Z,32.10
2018-06-18T09:11:45.044Z,33.60
2018-06-18T09:14:22.670Z,34.20
2018-06-18T09:16:59.930Z,32.90
2018-06-18T09:19:36.737Z,32.70
2018-06-18T09:22:13.892Z,34.30
2018-06-18T09:24:50.643Z,33.40
2018-06-18T09:27:27.552Z,32.60
2018-06-18T09:30:11.396Z,33.60
2018-06-18T09:32:48.378Z,32.80
2018-06-18T09:35:25.908Z,32.60
2018-06-18T09:38:02.454Z,32.50
2018-06-18T09:40:39.323Z,32.70
2018-06-18T09:43:16.310Z,32.30
2018-06-18T09:45:53.863Z,32.50
2018-06-18T09:48:36.539Z,33.90
2018-06-18T09:51:18.249Z,34.10
2018-06-18T09:54:00.156Z,34.30
2018-06-18T09:56:41.893Z,34.70
2018-06-18T10:02:00.968Z,35.70
2018-06-18T10:04:37.806Z,35.10
2018-06-18T10:07:15.080Z,35.10
2018-06-18T10:09:55.028Z,34.50
2018-06-18T10:12:31.906Z,35.30
2018-06-18T10:17:45.490Z,38.80
2018-06-18T10:20:22.448Z,39.50
2018-06-18T10:22:59.227Z,38.90
2018-06-18T10:25:36.626Z,36.70
2018-06-18T10:28:13.504Z,38.40
2018-06-18T10:30:50.529Z,36.70
2018-06-18T10:33:32.928Z,36.30
2018-06-18T10:36:14.523Z,35.90
2018-06-18T10:38:56.672Z,34.30
2018-06-18T10:41:38.236Z,34.40
2018-06-18T10:44:15.122Z,34.80
2018-06-18T10:47:13.207Z,35.70
2018-06-18T10:49:50.000Z,35.90
2018-06-18T10:52:27.015Z,37.00
2018-06-18T10:55:04.180Z,35.60
2018-06-18T10:57:42.236Z,35.40
2018-06-18T11:00:23.607Z,36.40
2018-06-18T11:03:00.945Z,37.00
2018-06-18T11:05:42.757Z,37.90
2018-06-18T11:08:19.241Z,38.40
2018-06-18T11:13:33.386Z,38.40
2018-06-18T11:16:11.140Z,37.80
2018-06-18T11:18:52.715Z,37.30
2018-06-18T11:21:35.046Z,36.70
2018-06-18T11:24:17.429Z,36.50
2018-06-18T11:26:55.776Z,37.30
2018-06-18T11:29:32.712Z,37.50
2018-06-18T11:32:09.772Z,36.90
2018-06-18T11:34:46.841Z,37.00
2018-06-18T11:37:23.725Z,37.50
2018-06-18T11:40:00.738Z,38.10
2018-06-18T11:42:38.127Z,37.80
2018-06-18T11:45:15.226Z,37.80
2018-06-18T11:47:56.552Z,38.50
2018-06-18T11:50:34.330Z,36.90
2018-06-18T11:53:11.122Z,36.30
2018-06-18T11:55:48.317Z,36.90
2018-06-18T11:58:30.368Z,37.70
2018-06-18T12:01:11.921Z,37.90
2018-06-18T12:03:58.247Z,38.60
2018-06-18T12:06:39.984Z,38.30
2018-06-18T12:09:22.518Z,37.90
2018-06-18T12:11:59.577Z,38.30
2018-06-18T12:14:36.914Z,37.70
2018-06-18T12:17:13.903Z,36.90
2018-06-18T12:19:51.345Z,38.20
2018-06-18T12:22:29.084Z,37.20
2018-06-18T12:25:06.367Z,37.00
2018-06-18T12:27:43.593Z,37.30
2018-06-18T12:30:20.512Z,38.20
2018-06-18T12:32:57.628Z,38.40
2018-06-18T12:35:35.518Z,37.80
2018-06-18T12:40:49.096Z,38.20
2018-06-18T12:43:28.813Z,37.60
2018-06-18T12:46:11.359Z,37.00
2018-06-18T12:48:53.141Z,37.50
2018-06-18T12:51:35.972Z,37.40
2018-06-18T12:54:18.333Z,36.60
2018-06-18T12:56:57.748Z,36.90
2018-06-18T12:59:35.292Z,35.70
2018-06-18T13:02:29.704Z,34.70
2018-06-18T13:05:07.371Z,33.40
2018-06-18T13:07:44.565Z,32.10
2018-06-18T13:10:21.624Z,31.60
2018-06-18T13:15:35.133Z,30.70
2018-06-18T13:18:11.923Z,30.10
2018-06-18T13:20:49.515Z,29.90
2018-06-18T13:23:26.921Z,29.60
2018-06-18T13:26:04.978Z,29.50
2018-06-18T13:28:41.856Z,29.70
2018-06-18T13:31:18.840Z,29.70
2018-06-18T13:33:55.889Z,29.70
2018-06-18T13:36:32.714Z,29.70
2018-06-18T13:39:14.921Z,29.60
2018-06-18T13:41:57.000Z,29.10
2018-06-18T13:44:39.038Z,29.10
2018-06-18T13:47:20.586Z,29.30
2018-06-18T13:49:57.852Z,29.60
2018-06-18T13:52:36.357Z,29.60
2018-06-18T13:55:13.158Z,29.30
2018-06-18T13:57:50.564Z,28.90
2018-06-18T14:00:28.331Z,28.80
2018-06-18T14:03:05.964Z,28.70
2018-06-18T14:05:43.560Z,28.90
2018-06-18T14:08:20.590Z,29.00
2018-06-18T14:10:57.761Z,28.60
2018-06-18T14:13:35.076Z,28.90
2018-06-18T14:16:13.063Z,29.20
2018-06-18T14:18:51.692Z,29.10
2018-06-18T14:21:28.833Z,28.90
2018-06-18T14:24:05.576Z,29.00
2018-06-18T14:26:42.205Z,28.80
2018-06-18T14:29:25.958Z,28.60
2018-06-18T14:32:03.404Z,28.60
2018-06-18T14:34:45.032Z,28.50
2018-06-18T14:37:27.869Z,28.70
2018-06-18T14:40:15.233Z,28.60
2018-06-18T14:42:52.235Z,28.50
2018-06-18T14:45:29.919Z,28.60
2018-06-18T14:48:10.872Z,28.30
2018-06-18T14:50:48.781Z,28.40
2018-06-18T14:53:26.290Z,28.70
2018-06-18T14:56:19.863Z,28.60
2018-06-18T14:59:03.896Z,28.30
2018-06-18T15:01:40.937Z,28.50
2018-06-18T15:04:17.752Z,28.30
2018-06-18T15:06:54.534Z,28.20
2018-06-18T15:09:32.559Z,28.20
2018-06-18T15:12:10.574Z,28.40
2018-06-18T15:14:51.592Z,28.10
2018-06-18T15:17:29.936Z,28.10
2018-06-18T15:20:07.157Z,28.10
2018-06-18T15:22:48.256Z,27.90
2018-06-18T15:25:25.929Z,28.00
2018-06-18T15:28:03.117Z,28.00
2018-06-18T15:30:39.626Z,27.90
2018-06-18T15:33:16.672Z,27.90
2018-06-18T15:38:55.337Z,27.30
2018-06-18T15:41:32.404Z,27.30
2018-06-18T15:44:09.538Z,27.30
2018-06-18T15:46:46.355Z,27.40
2018-06-18T15:49:23.673Z,27.50
2018-06-18T15:52:01.052Z,27.50
2018-06-18T15:54:37.723Z,27.50
2018-06-18T15:57:14.692Z,27.50
2018-06-18T15:59:51.779Z,27.40
2018-06-18T16:02:28.724Z,27.30
2018-06-18T16:05:06.235Z,27.40
2018-06-18T16:07:43.046Z,27.50
2018-06-18T16:10:19.787Z,27.30
2018-06-18T16:12:58.015Z,27.20
2018-06-18T16:15:35.121Z,27.30
2018-06-18T16:18:12.787Z,27.20
2018-06-18T16:20:49.564Z,27.10
2018-06-18T16:26:04.440Z,27.20
2018-06-18T16:28:41.569Z,27.20
2018-06-18T16:31:18.498Z,27.10
2018-06-18T16:33:56.476Z,29.00
2018-06-18T16:36:34.167Z,27.00
2018-06-18T16:39:12.459Z,27.00
2018-06-18T16:41:49.572Z,27.10
2018-06-18T16:44:28.037Z,27.10
2018-06-18T16:47:05.617Z,26.90
2018-06-18T16:49:42.773Z,26.80
2018-06-18T16:52:19.927Z,27.00
2018-06-18T16:54:56.910Z,27.00
2018-06-18T16:57:33.513Z,26.90
2018-06-18T17:00:10.406Z,26.70
2018-06-18T17:02:48.559Z,26.80
2018-06-18T17:05:25.563Z,25.00
2018-06-18T17:08:02.972Z,26.70
2018-06-18T17:10:41.114Z,26.70
2018-06-18T17:15:55.207Z,26.90
2018-06-18T17:18:32.266Z,26.90
2018-06-18T17:21:09.238Z,26.90
2018-06-18T17:23:46.342Z,27.00
2018-06-18T17:26:22.950Z,26.70
2018-06-18T17:29:01.448Z,26.60
2018-06-18T17:31:39.188Z,26.60
2018-06-18T17:34:16.055Z,26.70
2018-06-18T17:36:53.578Z,26.80
2018-06-18T17:39:30.025Z,26.90
2018-06-18T17:42:07.399Z,27.10
2018-06-18T17:44:44.077Z,27.20
2018-06-18T17:47:21.152Z,27.10
2018-06-18T17:49:58.100Z,27.20
2018-06-18T17:52:35.079Z,26.90
2018-06-18T17:55:11.951Z,26.80
2018-06-18T17:57:48.953Z,26.90
2018-06-18T18:00:25.606Z,26.90
2018-06-18T18:03:02.690Z,26.90
2018-06-18T18:05:39.586Z,26.80
2018-06-18T18:08:16.607Z,26.80
2018-06-18T18:10:53.507Z,26.80
2018-06-18T18:13:31.696Z,26.90
2018-06-18T18:16:08.643Z,26.80
2018-06-18T18:18:45.897Z,26.60
2018-06-18T18:21:22.479Z,26.70
2018-06-18T18:23:59.718Z,26.70
2018-06-18T18:26:36.507Z,26.60
2018-06-18T18:29:13.463Z,26.60
2018-06-18T18:31:50.350Z,26.50
2018-06-18T18:34:27.659Z,26.40
2018-06-18T18:37:04.543Z,26.30
2018-06-18T18:39:41.389Z,26.20
2018-06-18T18:42:19.103Z,26.10
2018-06-18T18:44:56.033Z,26.10
2018-06-18T18:47:33.045Z,26.10
2018-06-18T18:50:10.381Z,26.00
2018-06-18T18:52:47.073Z,26.00
2018-06-18T18:55:36.814Z,26.10
2018-06-18T18:58:24.876Z,25.80
2018-06-18T19:01:02.246Z,25.90
2018-06-18T19:03:39.474Z,25.90
2018-06-18T19:06:16.197Z,25.80
2018-06-18T19:08:53.524Z,25.80
2018-06-18T19:11:30.355Z,25.80
2018-06-18T19:14:07.252Z,25.70
2018-06-18T19:16:44.575Z,25.60
2018-06-18T19:19:22.728Z,25.50
2018-06-18T19:22:00.464Z,25.40
2018-06-18T19:24:37.917Z,25.30
2018-06-18T19:27:14.341Z,25.40
2018-06-18T19:29:50.938Z,25.50
2018-06-18T19:32:27.638Z,25.70
2018-06-18T19:35:04.898Z,25.50
2018-06-18T19:37:41.800Z,25.50
2018-06-18T19:40:18.772Z,25.60
2018-06-18T19:42:55.581Z,25.50
2018-06-18T19:45:33.907Z,25.50
2018-06-18T19:48:20.235Z,25.40
2018-06-18T19:50:57.219Z,25.40
2018-06-18T19:53:34.257Z,25.30
2018-06-18T19:56:11.719Z,25.30
2018-06-18T19:58:48.901Z,25.20
2018-06-18T20:01:25.902Z,25.20
2018-06-18T20:04:04.720Z,25.20
2018-06-18T20:06:43.071Z,25.20
2018-06-18T20:09:21.061Z,25.20
2018-06-18T20:11:58.569Z,25.10
2018-06-18T20:14:35.251Z,25.10
2018-06-18T20:17:12.243Z,25.00
2018-06-18T20:19:49.015Z,25.00
2018-06-18T20:22:26.156Z,25.10
2018-06-18T20:25:04.727Z,25.10
2018-06-18T20:27:49.053Z,25.10
2018-06-18T20:30:26.973Z,25.10
2018-06-18T20:33:04.104Z,25.20
2018-06-18T20:35:44.537Z,25.10
2018-06-18T20:38:22.105Z,25.10
2018-06-18T20:40:59.263Z,25.00
2018-06-18T20:43:40.771Z,25.10
2018-06-18T20:46:17.952Z,25.10
2018-06-18T20:48:55.672Z,25.00
2018-06-18T20:51:32.321Z,25.00
2018-06-18T20:54:10.053Z,25.00
2018-06-18T20:56:47.971Z,24.90
2018-06-18T20:59:26.543Z,25.00
2018-06-18T21:02:03.734Z,25.00
2018-06-18T21:04:41.165Z,25.00
2018-06-18T21:07:18.348Z,25.00
2018-06-18T21:09:55.433Z,25.00
2018-06-18T21:12:33.277Z,25.00
2018-06-18T21:15:10.874Z,25.00
2018-06-18T21:17:48.252Z,25.00
2018-06-18T21:20:25.500Z,25.10
2018-06-18T21:23:03.106Z,25.30
2018-06-18T21:25:42.713Z,25.20
2018-06-18T21:28:30.895Z,25.30
2018-06-18T21:31:08.303Z,25.30
2018-06-18T21:33:45.583Z,25.20
2018-06-18T21:36:24.133Z,25.20
2018-06-18T21:39:01.376Z,25.30
2018-06-18T21:41:39.144Z,25.30
2018-06-18T21:44:20.779Z,25.20
2018-06-18T21:46:57.942Z,25.20
2018-06-18T21:49:36.091Z,25.00
2018-06-18T21:52:12.912Z,25.00
2018-06-18T21:54:52.088Z,25.00
2018-06-18T21:57:30.644Z,24.90
2018-06-18T22:00:17.167Z,24.90
2018-06-18T22:02:56.015Z,24.90
2018-06-18T22:05:36.333Z,24.80
2018-06-18T22:08:15.505Z,24.80
2018-06-18T22:10:53.176Z,24.80
2018-06-18T22:16:07.988Z,24.60
2018-06-18T22:18:45.655Z,24.60
2018-06-18T22:23:59.502Z,24.70
2018-06-18T22:26:36.701Z,24.70
2018-06-18T22:29:14.600Z,23.60
2018-06-18T22:31:58.688Z,24.70
2018-06-18T22:34:40.996Z,24.60
2018-06-18T22:37:19.449Z,24.70
2018-06-18T22:39:58.870Z,24.60
2018-06-18T22:42:38.172Z,24.50
2018-06-18T22:45:16.495Z,24.50
2018-06-18T22:47:56.843Z,24.40
2018-06-18T22:50:34.293Z,24.40
2018-06-18T22:55:48.964Z,24.30
2018-06-18T22:58:37.368Z,24.40
2018-06-18T23:01:14.982Z,24.40
2018-06-18T23:03:54.138Z,24.50
2018-06-18T23:06:31.435Z,24.40
2018-06-18T23:09:12.103Z,24.40
2018-06-18T23:11:49.600Z,24.40
2018-06-18T23:14:27.288Z,24.40
2018-06-18T23:17:04.723Z,24.30
2018-06-18T23:19:41.604Z,24.30
2018-06-18T23:22:19.361Z,24.30
2018-06-18T23:24:57.784Z,24.20
2018-06-18T23:27:34.435Z,24.30
2018-06-18T23:32:50.592Z,24.20
2018-06-18T23:35:27.886Z,24.20
2018-06-18T23:38:05.063Z,24.20
2018-06-18T23:40:42.508Z,24.20
2018-06-18T23:43:20.098Z,24.10
2018-06-18T23:45:57.105Z,24.10
2018-06-18T23:48:34.464Z,24.20
2018-06-18T23:51:11.908Z,24.30
2018-06-18T23:53:49.904Z,24.40
2018-06-18T23:56:36.259Z,24.20
2018-06-18T23:59:13.051Z,24.30
